createdAt,value
2019-04-14T00:02:14.891Z,7.60
2019-04-14T00:04:48.622Z,7.60
2019-04-14T00:07:18.742Z,7.60
2019-04-14T00:09:48.038Z,7.60
2019-04-14T00:12:18.675Z,7.60
2019-04-14T00:14:49.097Z,7.60
2019-04-14T00:17:19.418Z,7.70
2019-04-14T00:19:50.107Z,7.60
2019-04-14T00:22:20.517Z,7.60
2019-04-14T00:24:51.005Z,7.60
2019-04-14T00:27:21.451Z,7.60
2019-04-14T00:29:50.747Z,7.60
2019-04-14T00:32:20.523Z,7.60
2019-04-14T00:35:08.430Z,7.50
2019-04-14T00:37:46.631Z,7.50
2019-04-14T00:40:29.617Z,7.50
2019-04-14T00:43:11.910Z,7.60
2019-04-14T00:46:01.383Z,7.50
2019-04-14T00:48:32.021Z,7.50
2019-04-14T00:51:02.668Z,7.50
2019-04-14T00:53:32.115Z,7.50
2019-04-14T00:56:01.992Z,7.50
2019-04-14T00:58:32.204Z,7.50
2019-04-14T01:01:02.698Z,7.50
2019-04-14T01:03:33.054Z,7.50
2019-04-14T01:06:03.186Z,7.50
2019-04-14T01:08:33.450Z,7.40
2019-04-14T01:11:03.137Z,7.50
2019-04-14T01:13:33.282Z,7.40
2019-04-14T01:16:08.929Z,7.40
2019-04-14T01:18:34.061Z,7.40
2019-04-14T01:21:04.594Z,7.30
2019-04-14T01:23:34.798Z,7.30
2019-04-14T01:26:05.051Z,7.30
2019-04-14T01:28:35.440Z,7.30
2019-04-14T01:31:05.503Z,7.30
2019-04-14T01:33:35.836Z,7.30
2019-04-14T01:36:06.103Z,7.30
2019-04-14T01:38:36.452Z,7.40
2019-04-14T01:41:06.439Z,7.40
2019-04-14T01:43:36.415Z,7.40
2019-04-14T01:46:14.396Z,7.40
2019-04-14T01:48:36.809Z,7.40
2019-04-14T01:51:25.101Z,7.40
2019-04-14T01:54:17.092Z,7.40
2019-04-14T01:56:58.218Z,7.40
2019-04-14T01:59:28.360Z,7.40
2019-04-14T02:01:58.682Z,7.40
2019-04-14T02:04:28.835Z,7.40
2019-04-14T02:06:59.191Z,7.40
2019-04-14T02:09:29.488Z,7.40
2019-04-14T02:11:59.510Z,7.40
2019-04-14T02:14:30.037Z,7.50
2019-04-14T02:17:02.535Z,7.50
2019-04-14T02:19:30.662Z,7.50
2019-04-14T02:22:00.676Z,7.50
2019-04-14T02:24:30.979Z,7.40
2019-04-14T02:27:01.265Z,7.30
2019-04-14T02:29:31.905Z,7.30
2019-04-14T02:32:37.271Z,7.30
2019-04-14T02:35:00.229Z,7.30
2019-04-14T02:37:31.879Z,7.30
2019-04-14T02:40:00.774Z,7.30
2019-04-14T02:42:36.668Z,7.30
2019-04-14T02:45:00.226Z,7.30
2019-04-14T02:50:17.604Z,7.40
2019-04-14T02:52:47.292Z,7.40
2019-04-14T02:55:04.495Z,7.40
2019-04-14T03:00:11.614Z,7.40
2019-04-14T03:02:38.900Z,7.40
2019-04-14T03:10:12.582Z,7.40
2019-04-14T03:12:48.805Z,7.40
2019-04-14T03:15:16.464Z,7.40
2019-04-14T03:23:33.147Z,7.40
2019-04-14T03:26:05.065Z,7.40
2019-04-14T03:28:40.278Z,7.40
2019-04-14T03:36:44.630Z,7.40
2019-04-14T03:38:53.312Z,7.40
2019-04-14T03:43:41.565Z,7.40
2019-04-14T03:56:33.465Z,7.40
2019-04-14T03:59:04.119Z,7.40
2019-04-14T04:01:34.538Z,7.40
2019-04-14T04:04:05.257Z,7.40
2019-04-14T04:06:35.593Z,7.40
2019-04-14T04:09:06.384Z,7.40
2019-04-14T04:11:36.645Z,7.40
2019-04-14T04:14:07.327Z,7.40
2019-04-14T04:16:52.908Z,7.40
2019-04-14T04:19:27.719Z,7.40
2019-04-14T04:22:15.046Z,7.40
2019-04-14T04:24:50.000Z,7.40
2019-04-14T04:27:56.913Z,7.40
2019-04-14T04:30:45.263Z,7.40
2019-04-14T04:33:19.887Z,7.40
2019-04-14T04:35:52.879Z,7.40
2019-04-14T04:38:29.439Z,7.40
2019-04-14T04:40:59.405Z,7.40
2019-04-14T04:43:29.759Z,7.40
2019-04-14T04:45:59.099Z,7.40
2019-04-14T04:48:28.554Z,7.50
2019-04-14T04:50:58.584Z,7.50
2019-04-14T04:53:28.783Z,7.50
2019-04-14T04:55:59.313Z,7.50
2019-04-14T04:58:30.510Z,7.50
2019-04-14T05:01:01.298Z,7.50
2019-04-14T05:03:31.823Z,7.50
2019-04-14T05:06:50.520Z,7.50
2019-04-14T05:09:29.572Z,7.50
2019-04-14T05:12:13.249Z,7.50
2019-04-14T05:14:47.946Z,7.50
2019-04-14T05:17:19.092Z,7.50
2019-04-14T05:19:49.652Z,7.60
2019-04-14T05:22:20.735Z,7.60
2019-04-14T05:24:50.772Z,7.60
2019-04-14T05:27:21.081Z,7.60
2019-04-14T05:29:51.478Z,7.70
2019-04-14T05:32:21.613Z,7.70
2019-04-14T05:34:52.103Z,7.70
2019-04-14T05:37:22.495Z,7.70
2019-04-14T05:39:52.692Z,7.80
2019-04-14T05:42:25.331Z,7.80
2019-04-14T05:44:53.591Z,7.90
2019-04-14T05:47:23.829Z,7.90
2019-04-14T05:49:56.118Z,8.00
2019-04-14T05:52:25.184Z,8.00
2019-04-14T05:54:55.701Z,8.00
2019-04-14T05:57:26.226Z,8.10
2019-04-14T05:59:56.931Z,8.10
2019-04-14T06:02:28.884Z,8.10
2019-04-14T06:04:57.382Z,8.10
2019-04-14T06:07:26.689Z,8.20
2019-04-14T06:09:56.054Z,8.30
2019-04-14T06:12:25.266Z,8.30
2019-04-14T06:14:54.637Z,8.40
2019-04-14T06:17:24.121Z,8.40
2019-04-14T06:19:53.429Z,8.40
2019-04-14T06:22:22.709Z,8.50
2019-04-14T06:24:51.977Z,8.50
2019-04-14T06:27:22.131Z,8.50
2019-04-14T06:29:53.437Z,8.50
2019-04-14T06:32:41.787Z,8.50
2019-04-14T06:35:29.041Z,8.50
2019-04-14T06:38:01.161Z,8.50
2019-04-14T06:40:52.329Z,8.50
2019-04-14T06:43:21.632Z,8.60
2019-04-14T06:45:50.893Z,8.60
2019-04-14T06:48:20.288Z,8.60
2019-04-14T06:50:49.589Z,8.70
2019-04-14T06:53:18.944Z,8.80
2019-04-14T06:55:48.207Z,8.80
2019-04-14T06:58:17.670Z,8.80
2019-04-14T07:00:47.337Z,8.90
2019-04-14T07:03:16.628Z,9.00
2019-04-14T07:05:45.993Z,9.00
2019-04-14T07:08:15.321Z,9.10
2019-04-14T07:10:44.648Z,9.20
2019-04-14T07:13:14.112Z,9.20
2019-04-14T07:15:43.477Z,9.20
2019-04-14T07:18:13.096Z,9.30
2019-04-14T07:20:42.400Z,9.30
2019-04-14T07:23:11.660Z,9.30
2019-04-14T07:25:41.091Z,9.40
2019-04-14T07:28:10.528Z,9.40
2019-04-14T07:31:03.914Z,9.40
2019-04-14T07:33:45.900Z,9.50
2019-04-14T07:36:26.864Z,9.60
2019-04-14T07:39:07.603Z,9.60
2019-04-14T07:41:43.796Z,9.70
2019-04-14T07:44:31.836Z,9.80
2019-04-14T07:47:10.652Z,9.80
2019-04-14T07:50:14.511Z,9.90
2019-04-14T07:53:16.493Z,10.00
2019-04-14T07:55:59.935Z,9.90
2019-04-14T07:58:51.291Z,10.00
2019-04-14T08:01:27.505Z,10.00
2019-04-14T08:04:33.983Z,10.00
2019-04-14T08:07:03.253Z,10.00
2019-04-14T08:09:32.632Z,10.10
2019-04-14T08:12:02.032Z,10.10
2019-04-14T08:14:31.311Z,10.10
2019-04-14T08:17:00.639Z,10.10
2019-04-14T08:19:29.939Z,10.10
2019-04-14T08:21:59.291Z,10.20
2019-04-14T08:24:28.602Z,10.30
2019-04-14T08:26:57.927Z,10.40
2019-04-14T08:29:27.235Z,10.50
2019-04-14T08:31:56.728Z,10.60
2019-04-14T08:34:25.983Z,10.60
2019-04-14T08:36:55.280Z,10.70
2019-04-14T08:39:24.647Z,10.80
2019-04-14T08:42:05.461Z,10.80
2019-04-14T08:44:40.559Z,10.80
2019-04-14T08:47:44.002Z,10.90
2019-04-14T08:50:39.385Z,10.90
2019-04-14T08:53:12.923Z,10.90
2019-04-14T08:55:54.858Z,11.00
2019-04-14T08:58:40.178Z,10.90
2019-04-14T09:01:17.570Z,10.90
2019-04-14T09:03:59.451Z,10.90
2019-04-14T09:06:56.938Z,10.90
2019-04-14T09:09:51.246Z,10.90
2019-04-14T09:12:29.250Z,10.90
2019-04-14T09:14:58.603Z,10.90
2019-04-14T09:17:29.682Z,10.90
2019-04-14T09:19:58.946Z,10.90
2019-04-14T09:22:28.253Z,10.90
2019-04-14T09:24:57.641Z,10.90
2019-04-14T09:27:27.218Z,10.90
2019-04-14T09:29:56.505Z,10.90
2019-04-14T09:32:26.778Z,10.90
2019-04-14T09:34:56.513Z,11.00
2019-04-14T09:37:25.805Z,11.00
2019-04-14T09:39:55.068Z,11.00
2019-04-14T09:42:24.452Z,11.00
2019-04-14T09:44:53.733Z,11.00
2019-04-14T09:47:23.002Z,11.10
2019-04-14T09:49:52.390Z,11.10
2019-04-14T09:52:21.581Z,11.10
2019-04-14T09:54:50.874Z,11.10
2019-04-14T09:57:20.337Z,11.10
2019-04-14T09:59:50.581Z,11.10
2019-04-14T10:02:19.865Z,11.20
2019-04-14T10:04:49.253Z,11.20
2019-04-14T10:07:18.595Z,11.20
2019-04-14T10:09:47.981Z,11.20
2019-04-14T10:12:17.681Z,11.30
2019-04-14T10:14:46.962Z,11.30
2019-04-14T10:17:16.293Z,11.40
2019-04-14T10:19:45.629Z,11.40
2019-04-14T10:22:14.965Z,11.50
2019-04-14T10:24:44.253Z,11.50
2019-04-14T10:27:14.408Z,11.50
2019-04-14T10:29:43.732Z,11.60
2019-04-14T10:32:13.044Z,11.60
2019-04-14T10:34:42.605Z,11.60
2019-04-14T10:37:11.921Z,11.70
2019-04-14T10:39:41.341Z,11.70
2019-04-14T10:42:10.620Z,11.80
2019-04-14T10:44:40.127Z,11.90
2019-04-14T10:47:09.420Z,11.90
2019-04-14T10:49:38.816Z,12.00
2019-04-14T10:52:08.173Z,12.00
2019-04-14T10:54:37.546Z,12.10
2019-04-14T10:57:06.972Z,12.10
2019-04-14T10:59:36.233Z,12.20
2019-04-14T11:02:05.696Z,12.40
2019-04-14T11:04:34.968Z,12.80
2019-04-14T11:07:14.345Z,13.40
2019-04-14T11:09:43.648Z,13.90
2019-04-14T11:12:12.984Z,14.50
2019-04-14T11:14:42.289Z,14.90
2019-04-14T11:17:11.584Z,15.30
2019-04-14T11:19:41.040Z,15.50
2019-04-14T11:22:10.444Z,15.70
2019-04-14T11:24:39.773Z,15.90
2019-04-14T11:27:09.379Z,16.20
2019-04-14T11:29:38.720Z,16.30
2019-04-14T11:32:36.136Z,16.50
2019-04-14T11:35:19.754Z,16.60
2019-04-14T11:37:57.996Z,16.70
2019-04-14T11:40:30.816Z,16.90
2019-04-14T11:43:00.139Z,16.90
2019-04-14T11:45:29.521Z,17.00
2019-04-14T11:47:58.865Z,17.10
2019-04-14T11:50:28.264Z,17.20
2019-04-14T11:52:57.542Z,17.30
2019-04-14T11:55:26.904Z,17.40
2019-04-14T11:57:56.319Z,17.50
2019-04-14T12:00:53.968Z,17.70
2019-04-14T12:03:39.259Z,17.90
2019-04-14T12:06:23.541Z,18.30
2019-04-14T12:08:58.168Z,18.70
2019-04-14T12:11:27.559Z,19.20
2019-04-14T12:13:56.983Z,19.50
2019-04-14T12:16:26.341Z,19.80
2019-04-14T12:18:55.611Z,20.00
2019-04-14T12:21:24.990Z,20.30
2019-04-14T12:23:54.656Z,20.70
2019-04-14T12:26:24.059Z,20.90
2019-04-14T12:28:53.700Z,21.20
2019-04-14T12:31:24.111Z,21.50
2019-04-14T12:33:53.955Z,21.60
2019-04-14T12:36:23.328Z,21.70
2019-04-14T12:38:52.594Z,21.90
2019-04-14T12:41:31.087Z,22.10
2019-04-14T12:44:30.179Z,22.20
2019-04-14T12:47:09.387Z,22.30
2019-04-14T12:49:41.166Z,22.50
2019-04-14T12:52:22.211Z,22.70
2019-04-14T12:54:51.503Z,22.80
2019-04-14T12:57:32.249Z,22.90
2019-04-14T13:00:01.623Z,23.00
2019-04-14T13:02:34.299Z,23.20
2019-04-14T13:05:04.220Z,23.40
2019-04-14T13:07:33.615Z,23.50
2019-04-14T13:10:02.966Z,23.60
2019-04-14T13:12:32.338Z,23.60
2019-04-14T13:15:02.948Z,23.60
2019-04-14T13:17:32.439Z,23.70
2019-04-14T13:20:01.770Z,23.90
2019-04-14T13:22:34.159Z,24.00
2019-04-14T13:25:02.478Z,24.20
2019-04-14T13:27:31.822Z,24.40
2019-04-14T13:30:01.205Z,24.40
2019-04-14T13:32:36.275Z,24.40
2019-04-14T13:35:01.610Z,24.50
2019-04-14T13:37:30.912Z,24.50
2019-04-14T13:40:00.217Z,24.60
2019-04-14T13:42:29.577Z,24.80
2019-04-14T13:44:58.875Z,24.80
2019-04-14T13:47:28.260Z,24.80
2019-04-14T13:49:57.682Z,25.00
2019-04-14T13:52:27.026Z,25.10
2019-04-14T13:54:56.390Z,25.10
2019-04-14T13:57:25.805Z,25.10
2019-04-14T13:59:55.089Z,25.10
2019-04-14T14:02:24.505Z,25.10
2019-04-14T14:04:54.018Z,24.90
2019-04-14T14:07:23.362Z,24.60
2019-04-14T14:09:52.690Z,24.10
2019-04-14T14:12:29.625Z,23.80
2019-04-14T14:15:24.605Z,23.60
2019-04-14T14:18:12.914Z,23.60
2019-04-14T14:20:59.632Z,23.60
2019-04-14T14:23:56.612Z,23.80
2019-04-14T14:26:27.336Z,23.90
2019-04-14T14:28:56.726Z,23.90
2019-04-14T14:31:26.136Z,23.90
2019-04-14T14:33:55.440Z,23.90
2019-04-14T14:36:24.822Z,24.00
2019-04-14T14:38:54.196Z,24.00
2019-04-14T14:41:23.492Z,24.00
2019-04-14T14:43:52.859Z,23.90
2019-04-14T14:46:37.081Z,23.80
2019-04-14T14:49:24.328Z,23.80
2019-04-14T14:52:03.964Z,23.70
2019-04-14T14:54:33.257Z,23.80
2019-04-14T14:57:02.657Z,23.70
2019-04-14T14:59:31.937Z,23.70
2019-04-14T15:02:01.288Z,23.70
2019-04-14T15:04:30.618Z,23.60
2019-04-14T15:06:59.993Z,23.40
2019-04-14T15:09:29.388Z,23.20
2019-04-14T15:11:58.785Z,23.10
2019-04-14T15:14:28.176Z,23.20
2019-04-14T15:16:57.676Z,23.10
2019-04-14T15:19:27.029Z,23.00
2019-04-14T15:21:56.340Z,23.00
2019-04-14T15:24:25.714Z,22.90
2019-04-14T15:26:55.021Z,22.90
2019-04-14T15:29:24.335Z,22.80
2019-04-14T15:31:53.724Z,22.80
2019-04-14T15:34:23.216Z,22.80
2019-04-14T15:36:52.524Z,22.70
2019-04-14T15:39:21.895Z,22.60
2019-04-14T15:41:51.227Z,22.50
2019-04-14T15:44:20.672Z,22.50
2019-04-14T15:46:50.048Z,22.40
2019-04-14T15:49:19.352Z,22.20
2019-04-14T15:51:48.949Z,21.80
2019-04-14T15:54:19.827Z,21.50
2019-04-14T15:57:03.731Z,21.20
2019-04-14T16:00:09.052Z,20.80
2019-04-14T16:03:01.767Z,20.40
2019-04-14T16:05:43.064Z,20.00
2019-04-14T16:08:22.700Z,19.70
2019-04-14T16:10:55.475Z,19.60
2019-04-14T16:13:44.264Z,19.50
2019-04-14T16:16:38.760Z,19.50
2019-04-14T16:19:13.267Z,19.40
2019-04-14T16:21:42.571Z,19.40
2019-04-14T16:24:11.939Z,19.40
2019-04-14T16:26:46.687Z,19.50
2019-04-14T16:29:30.023Z,19.60
2019-04-14T16:32:08.135Z,19.70
2019-04-14T16:34:50.211Z,19.70
2019-04-14T16:37:19.571Z,19.70
2019-04-14T16:39:48.958Z,19.60
2019-04-14T16:42:18.328Z,19.60
2019-04-14T16:44:47.627Z,19.40
2019-04-14T16:47:16.881Z,19.30
2019-04-14T16:49:46.199Z,19.20
2019-04-14T16:52:33.251Z,19.10
2019-04-14T16:55:29.675Z,19.00
2019-04-14T16:58:19.971Z,18.90
2019-04-14T17:01:14.351Z,18.70
2019-04-14T17:03:43.907Z,18.60
2019-04-14T17:06:13.111Z,18.40
2019-04-14T17:08:42.515Z,18.30
2019-04-14T17:11:11.771Z,18.10
2019-04-14T17:13:43.634Z,17.90
2019-04-14T17:16:30.931Z,17.70
2019-04-14T17:19:19.400Z,17.50
2019-04-14T17:21:55.803Z,17.20
2019-04-14T17:24:56.557Z,17.00
2019-04-14T17:27:37.707Z,16.70
2019-04-14T17:30:15.208Z,16.40
2019-04-14T17:33:03.582Z,16.20
2019-04-14T17:35:50.728Z,15.90
2019-04-14T17:38:35.206Z,15.70
2019-04-14T17:41:11.930Z,15.50
2019-04-14T17:44:03.194Z,15.30
2019-04-14T17:46:50.246Z,15.10
2019-04-14T17:49:44.569Z,15.00
2019-04-14T17:52:31.822Z,14.80
2019-04-14T17:55:05.733Z,14.60
2019-04-14T17:57:52.417Z,14.50
2019-04-14T18:00:30.581Z,14.40
2019-04-14T18:03:15.721Z,14.30
2019-04-14T18:05:51.394Z,14.20
2019-04-14T18:08:42.530Z,14.10
2019-04-14T18:11:30.889Z,14.00
2019-04-14T18:14:19.185Z,13.90
2019-04-14T18:17:15.653Z,13.80
2019-04-14T18:19:51.704Z,13.70
2019-04-14T18:22:21.009Z,13.60
2019-04-14T18:24:50.366Z,13.50
2019-04-14T18:27:19.773Z,13.40
2019-04-14T18:29:57.855Z,13.40
2019-04-14T18:32:55.057Z,13.20
2019-04-14T18:35:48.917Z,13.20
2019-04-14T18:38:36.045Z,13.10
2019-04-14T18:41:12.057Z,13.00
2019-04-14T18:43:48.119Z,12.90
2019-04-14T18:46:34.865Z,12.80
2019-04-14T18:49:13.092Z,12.80
2019-04-14T18:51:56.929Z,12.60
2019-04-14T18:54:32.368Z,12.60
2019-04-14T18:57:15.288Z,12.50
2019-04-14T18:59:49.268Z,12.50
2019-04-14T19:02:19.997Z,12.40
2019-04-14T19:04:49.304Z,12.30
2019-04-14T19:07:21.099Z,12.30
2019-04-14T19:09:50.408Z,12.20
2019-04-14T19:12:37.312Z,12.20
2019-04-14T19:15:16.013Z,12.10
2019-04-14T19:17:55.020Z,12.00
2019-04-14T19:20:24.294Z,12.00
2019-04-14T19:22:53.679Z,11.90
2019-04-14T19:25:23.059Z,11.90
2019-04-14T19:27:52.460Z,11.80
2019-04-14T19:30:21.899Z,11.70
2019-04-14T19:32:51.235Z,11.70
2019-04-14T19:35:20.538Z,11.60
2019-04-14T19:37:49.782Z,11.60
2019-04-14T19:40:19.162Z,11.60
2019-04-14T19:42:48.440Z,11.50
2019-04-14T19:45:17.702Z,11.40
2019-04-14T19:47:49.057Z,11.30
2019-04-14T19:50:18.311Z,11.30
2019-04-14T19:52:47.694Z,11.20
2019-04-14T19:55:20.640Z,11.20
2019-04-14T19:57:47.868Z,11.10
2019-04-14T20:00:17.469Z,11.10
2019-04-14T20:02:46.846Z,11.10
2019-04-14T20:05:16.134Z,11.00
2019-04-14T20:07:45.538Z,11.00
2019-04-14T20:10:15.172Z,10.90
2019-04-14T20:12:44.436Z,10.80
2019-04-14T20:15:16.791Z,10.80
2019-04-14T20:18:14.413Z,10.70
2019-04-14T20:20:56.758Z,10.70
2019-04-14T20:23:42.887Z,10.60
2019-04-14T20:26:29.907Z,10.60
2019-04-14T20:29:06.623Z,10.50
2019-04-14T20:31:41.063Z,10.50
2019-04-14T20:34:10.459Z,10.40
2019-04-14T20:36:39.859Z,10.40
2019-04-14T20:39:13.263Z,10.40
2019-04-14T20:41:44.389Z,10.30
2019-04-14T20:44:14.010Z,10.30
2019-04-14T20:46:43.319Z,10.20
2019-04-14T20:49:12.667Z,10.10
2019-04-14T20:51:42.955Z,10.10
2019-04-14T20:54:12.323Z,10.00
2019-04-14T20:56:41.743Z,10.00
2019-04-14T20:59:11.114Z,10.00
2019-04-14T21:01:44.214Z,9.90
2019-04-14T21:04:33.070Z,9.90
2019-04-14T21:07:21.430Z,9.80
2019-04-14T21:10:07.879Z,9.80
2019-04-14T21:13:08.490Z,9.80
2019-04-14T21:15:47.254Z,9.70
2019-04-14T21:18:38.400Z,9.70
2019-04-14T21:21:38.962Z,9.70
2019-04-14T21:24:31.542Z,9.60
2019-04-14T21:27:37.882Z,9.60
2019-04-14T21:30:25.006Z,9.50
2019-04-14T21:33:19.270Z,9.50
2019-04-14T21:35:52.534Z,9.40
2019-04-14T21:38:39.894Z,9.40
2019-04-14T21:41:29.584Z,9.40
2019-04-14T21:43:58.958Z,9.30
2019-04-14T21:46:28.414Z,9.30
2019-04-14T21:48:57.780Z,9.30
2019-04-14T21:51:46.134Z,9.20
2019-04-14T21:54:15.826Z,9.20
2019-04-14T21:56:46.734Z,9.20
2019-04-14T21:59:21.126Z,9.10
2019-04-14T22:02:24.674Z,9.10
2019-04-14T22:05:12.169Z,9.10
2019-04-14T22:07:46.525Z,9.00
2019-04-14T23:35:31.615Z,8.00
2019-04-14T23:38:00.931Z,8.00
2019-04-14T23:40:30.253Z,8.00
2019-04-14T23:42:59.522Z,7.90
2019-04-14T23:45:29.572Z,7.90
2019-04-14T23:47:58.836Z,7.80
2019-04-14T23:50:28.142Z,7.80
2019-04-14T23:52:57.395Z,7.80
2019-04-14T23:55:26.630Z,7.80
2019-04-14T23:57:55.920Z,7.70
